Time;durP1;ratioP1;P1;durP2;ratioP2;P2;SDS_P1;SDS_P2;PMS_P1;PMS_P2;Temp;Humidity;BMP_temperature;BMP_pressure;BME280_temperature;BME280_humidity;BME280_pressure;Samples;Min_cycle;Max_cycle;Signal;HPM_P1;HPM_P2
2022/04/01 00:02:01;;;;;;;13.83;11.47;;;2.40;99.90;;;;;;5115672;28;20180;-45
2022/04/01 00:04:26;;;;;;;13.77;11.00;;;2.50;99.90;;;;;;5115664;28;20231;-44
2022/04/01 00:06:52;;;;;;;14.30;10.50;;;2.50;99.90;;;;;;5115263;28;20708;-44
2022/04/01 00:09:17;;;;;;;13.33;10.33;;;2.60;99.90;;;;;;5115596;28;20175;-44
2022/04/01 00:11:43;;;;;;;12.53;10.07;;;2.60;99.90;;;;;;5115285;28;20196;-43
2022/04/01 00:14:09;;;;;;;13.40;10.80;;;2.60;99.90;;;;;;5115150;28;20201;-43
2022/04/01 00:16:34;;;;;;;14.80;11.20;;;2.60;99.90;;;;;;5115014;28;20537;-44
2022/04/01 00:19:00;;;;;;;12.37;10.00;;;2.60;99.90;;;;;;5115411;28;20180;-46
2022/04/01 00:21:26;;;;;;;13.93;11.77;;;2.70;99.90;;;;;;5114806;28;20187;-44
2022/04/01 00:23:51;;;;;;;14.37;12.03;;;2.70;99.90;;;;;;5114721;28;20180;-43
2022/04/01 00:26:17;;;;;;;12.00;8.97;;;2.70;99.90;;;;;;5115081;28;20246;-46
2022/04/01 00:28:43;;;;;;;11.37;8.73;;;2.70;99.90;;;;;;5115186;28;20176;-45
2022/04/01 00:31:09;;;;;;;12.17;9.30;;;2.70;99.90;;;;;;5114847;28;20230;-45
2022/04/01 00:33:35;;;;;;;12.67;11.37;;;2.70;99.90;;;;;;5115158;28;20208;-45
2022/04/01 00:36:01;;;;;;;13.60;9.90;;;2.70;99.90;;;;;;5115094;28;20198;-44
2022/04/01 00:38:27;;;;;;;12.67;10.10;;;2.70;99.90;;;;;;5114954;28;20408;-43
2022/04/01 00:40:52;;;;;;;9.63;7.87;;;2.80;99.90;;;;;;5115071;28;20226;-45
2022/04/01 00:43:32;;;;;;;12.40;9.97;;;2.80;99.90;;;;;;5115209;28;20208;-43
2022/04/01 00:45:58;;;;;;;9.17;8.17;;;2.80;99.90;;;;;;5114458;28;20574;-42
2022/04/01 00:48:27;;;;;;;11.33;8.23;;;2.70;99.90;;;;;;5114786;28;20656;-43
2022/04/01 00:50:54;;;;;;;11.07;9.20;;;2.70;99.90;;;;;;5114740;28;20185;-44
2022/04/01 00:53:22;;;;;;;11.50;8.73;;;2.70;99.90;;;;;;5114327;28;20287;-44
2022/04/01 00:55:47;;;;;;;10.70;9.07;;;2.70;99.90;;;;;;5114682;28;20197;-44
2022/04/01 00:58:13;;;;;;;10.63;9.53;;;2.70;99.90;;;;;;5114390;28;20513;-43
2022/04/01 01:00:39;;;;;;;10.47;8.60;;;2.70;99.90;;;;;;5096562;28;20199;-43
2022/04/01 01:03:05;;;;;;;10.07;8.40;;;2.80;99.90;;;;;;5114950;28;20204;-43
2022/04/01 01:05:31;;;;;;;10.73;9.57;;;2.80;99.90;;;;;;5096049;28;20200;-43
2022/04/01 01:07:58;;;;;;;11.03;9.93;;;2.70;99.90;;;;;;5078994;28;20178;-44
2022/04/01 01:10:24;;;;;;;11.60;8.23;;;2.70;99.90;;;;;;5114119;28;20713;-41
2022/04/01 01:12:51;;;;;;;9.80;8.80;;;2.70;99.90;;;;;;5113857;28;20308;-43
2022/04/01 01:15:18;;;;;;;10.00;8.60;;;2.80;99.90;;;;;;5114203;28;20386;-44
2022/04/01 01:17:45;;;;;;;6.60;5.67;;;2.70;99.90;;;;;;5113993;28;20178;-45
2022/04/01 01:20:14;;;;;;;9.60;8.60;;;2.70;99.90;;;;;;5114187;28;20173;-43
2022/04/01 01:22:41;;;;;;;10.67;7.37;;;2.70;99.90;;;;;;5113852;28;20272;-42
2022/04/01 01:25:08;;;;;;;11.40;8.83;;;2.70;99.90;;;;;;5114046;28;20405;-41
2022/04/01 01:27:34;;;;;;;9.23;8.33;;;2.70;99.90;;;;;;5113850;28;20174;-41
2022/04/01 01:30:02;;;;;;;7.77;6.47;;;2.70;99.90;;;;;;5114155;28;20250;-45
2022/04/01 01:32:29;;;;;;;11.00;7.97;;;2.70;99.90;;;;;;5114099;28;20182;-42
2022/04/01 01:34:56;;;;;;;10.87;7.87;;;2.70;99.90;;;;;;5112908;28;20182;-45
2022/04/01 01:37:22;;;;;;;8.00;5.70;;;2.70;99.90;;;;;;5095025;28;20642;-43
2022/04/01 01:39:48;;;;;;;10.20;8.23;;;2.70;99.90;;;;;;5113995;28;20185;-43
2022/04/01 01:42:15;;;;;;;8.50;7.70;;;2.70;99.90;;;;;;5113959;28;20671;-44
2022/04/01 01:44:41;;;;;;;8.80;7.23;;;2.70;99.90;;;;;;5114022;28;20177;-44
2022/04/01 01:47:07;;;;;;;10.57;7.37;;;2.70;99.90;;;;;;5113548;28;20275;-42
2022/04/01 01:49:33;;;;;;;9.47;8.53;;;2.60;99.90;;;;;;5114004;28;20635;-45
2022/04/01 01:54:50;;;;;;;8.80;7.33;;;2.70;99.90;;;;;;5113642;28;20198;-43
2022/04/01 01:57:21;;;;;;;9.97;7.10;;;2.60;99.90;;;;;;5095340;28;20210;-42
2022/04/01 01:59:48;;;;;;;8.13;7.33;;;2.60;99.90;;;;;;5113863;28;20156;-42
2022/04/01 02:02:14;;;;;;;11.40;7.67;;;2.60;99.90;;;;;;5113514;28;20264;-43
2022/04/01 02:04:41;;;;;;;8.97;8.07;;;2.60;99.90;;;;;;5113767;28;20219;-45
2022/04/01 02:07:08;;;;;;;8.80;6.00;;;2.60;99.90;;;;;;5113709;28;20198;-44
2022/04/01 02:09:34;;;;;;;10.03;7.93;;;2.60;99.90;;;;;;5113706;28;20238;-44
2022/04/01 02:12:00;;;;;;;9.97;8.97;;;2.60;99.90;;;;;;5113320;28;20198;-45
2022/04/01 02:14:26;;;;;;;10.60;8.97;;;2.50;99.90;;;;;;5113352;28;20239;-42
2022/04/01 02:16:53;;;;;;;10.50;7.63;;;2.50;99.90;;;;;;5113599;28;20197;-41
2022/04/01 02:19:21;;;;;;;9.57;8.40;;;2.50;99.90;;;;;;5113384;28;20226;-46
2022/04/01 02:21:49;;;;;;;11.30;9.17;;;2.50;99.90;;;;;;5113300;28;20180;-44
2022/04/01 02:24:17;;;;;;;10.40;7.83;;;2.50;99.90;;;;;;5113855;28;20631;-45
2022/04/01 02:26:45;;;;;;;10.10;8.37;;;2.50;99.90;;;;;;5096471;28;20254;-46
2022/04/01 02:29:11;;;;;;;10.30;8.13;;;2.40;99.90;;;;;;5113943;28;20177;-44
2022/04/01 02:31:37;;;;;;;9.57;8.33;;;2.40;99.90;;;;;;5113227;28;20186;-43
2022/04/01 02:34:03;;;;;;;9.63;8.63;;;2.40;99.90;;;;;;5113604;28;20240;-43
2022/04/01 02:36:28;;;;;;;10.13;8.50;;;2.40;99.90;;;;;;5113677;28;20205;-42
2022/04/01 02:38:54;;;;;;;8.97;6.37;;;2.40;99.90;;;;;;5113727;28;20265;-43
2022/04/01 02:41:20;;;;;;;8.87;7.50;;;2.40;99.90;;;;;;5095176;28;20235;-41
2022/04/01 02:43:47;;;;;;;9.40;6.87;;;2.40;99.90;;;;;;5113155;28;20205;-41
2022/04/01 02:46:12;;;;;;;8.03;7.23;;;2.30;99.90;;;;;;5115579;28;20204;-41
2022/04/01 02:48:38;;;;;;;8.30;6.77;;;2.30;99.90;;;;;;5117190;28;20178;-43
2022/04/01 02:51:04;;;;;;;6.30;5.70;;;2.30;99.90;;;;;;5116856;28;20221;-42
2022/04/01 02:53:30;;;;;;;5.60;4.90;;;2.30;99.90;;;;;;5116807;28;20229;-41
2022/04/01 02:55:55;;;;;;;7.87;6.83;;;2.30;99.90;;;;;;5116783;28;20240;-43
2022/04/01 02:58:21;;;;;;;8.80;5.90;;;2.20;99.90;;;;;;5116675;28;20181;-43
2022/04/01 03:00:47;;;;;;;8.37;7.07;;;2.20;99.90;;;;;;5117182;28;20175;-43
2022/04/01 03:03:12;;;;;;;5.83;4.60;;;2.20;99.90;;;;;;5116863;28;20181;-43
2022/04/01 03:05:42;;;;;;;9.67;7.90;;;2.20;99.90;;;;;;5116449;28;20200;-42
2022/04/01 03:08:09;;;;;;;10.20;6.93;;;2.10;99.90;;;;;;5117058;28;20517;-41
2022/04/01 03:10:36;;;;;;;7.20;6.40;;;2.20;99.90;;;;;;5116798;28;20653;-43
2022/04/01 03:13:02;;;;;;;7.63;6.60;;;2.20;99.90;;;;;;5116285;28;20213;-42
2022/04/01 03:15:28;;;;;;;8.90;7.33;;;2.10;99.90;;;;;;5116599;28;20620;-42
2022/04/01 03:17:58;;;;;;;10.60;9.50;;;2.10;99.90;;;;;;5098019;28;20273;-42
2022/04/01 03:20:25;;;;;;;11.67;7.50;;;2.00;99.90;;;;;;5116306;28;20532;-42
2022/04/01 03:22:52;;;;;;;11.97;8.73;;;2.00;99.90;;;;;;5116336;28;20591;-42
2022/04/01 03:25:19;;;;;;;9.37;8.00;;;2.00;99.90;;;;;;5116268;28;20672;-41
2022/04/01 03:27:46;;;;;;;8.77;7.30;;;2.00;99.90;;;;;;5116179;28;20707;-43
2022/04/01 03:30:13;;;;;;;9.43;8.40;;;2.00;99.90;;;;;;5116137;28;20185;-43
2022/04/01 03:32:40;;;;;;;9.37;7.73;;;1.90;99.90;;;;;;5116044;28;20169;-42
2022/04/01 03:35:09;;;;;;;7.57;6.80;;;1.90;99.90;;;;;;5116277;28;20199;-42
2022/04/01 03:37:35;;;;;;;9.83;6.30;;;1.90;99.90;;;;;;5116234;28;20189;-43
2022/04/01 03:40:01;;;;;;;9.90;6.67;;;1.90;99.90;;;;;;5115970;28;20410;-43
2022/04/01 03:42:30;;;;;;;10.17;7.40;;;1.90;99.90;;;;;;5116176;28;20188;-43
2022/04/01 03:45:03;;;;;;;10.93;7.13;;;1.90;99.90;;;;;;5097868;28;20189;-43
2022/04/01 03:47:37;;;;;;;8.87;7.93;;;1.90;99.90;;;;;;5116087;28;20173;-41
2022/04/01 03:50:04;;;;;;;8.87;7.37;;;1.90;99.90;;;;;;5116029;28;20173;-44
2022/04/01 03:52:32;;;;;;;8.47;7.10;;;1.90;99.90;;;;;;5097782;28;20419;-42
2022/04/01 03:55:03;;;;;;;5.53;4.77;;;1.80;99.90;;;;;;5115724;28;20576;-43
2022/04/01 03:57:47;;;;;;;9.00;7.43;;;1.90;99.90;;;;;;5114842;28;20400;-42
2022/04/01 04:00:16;;;;;;;8.97;7.57;;;1.80;99.90;;;;;;5115020;28;20478;-41
2022/04/01 04:02:44;;;;;;;8.63;6.17;;;1.90;99.90;;;;;;5115638;28;20891;-41
2022/04/01 04:05:10;;;;;;;7.53;6.17;;;1.80;99.90;;;;;;5098161;28;20176;-43
2022/04/01 04:07:39;;;;;;;8.33;5.97;;;1.80;99.90;;;;;;5115711;28;20173;-44
2022/04/01 04:10:06;;;;;;;9.70;6.13;;;1.80;99.90;;;;;;5115939;28;20530;-42
2022/04/01 04:12:35;;;;;;;9.93;6.70;;;1.80;99.90;;;;;;5115553;28;20200;-42
2022/04/01 04:15:03;;;;;;;5.83;4.77;;;1.80;99.90;;;;;;5115775;28;20239;-41
2022/04/01 04:17:37;;;;;;;10.07;6.80;;;1.80;99.90;;;;;;5115994;28;20167;-43
2022/04/01 04:20:13;;;;;;;8.60;6.10;;;1.80;99.90;;;;;;5115472;28;20161;-43
2022/04/01 04:23:06;;;;;;;7.90;5.60;;;1.80;99.90;;;;;;5115000;28;20182;-42
2022/04/01 04:25:36;;;;;;;8.80;7.53;;;1.80;99.90;;;;;;5115004;28;20429;-47
2022/04/01 04:28:09;;;;;;;6.10;5.50;;;1.80;99.90;;;;;;5115219;28;20292;-48
2022/04/01 04:30:48;;;;;;;8.07;6.60;;;1.80;99.90;;;;;;5115159;28;20245;-49
2022/04/01 04:33:16;;;;;;;6.93;4.93;;;1.80;99.90;;;;;;5096581;28;20195;-48
2022/04/01 04:35:44;;;;;;;5.57;4.43;;;1.80;99.90;;;;;;5114978;28;20194;-48
2022/04/01 04:38:12;;;;;;;8.70;5.40;;;1.80;99.90;;;;;;5114915;28;20542;-48
2022/04/01 04:40:41;;;;;;;6.13;5.53;;;1.70;99.90;;;;;;5114634;28;20171;-47
2022/04/01 04:43:06;;;;;;;7.43;5.83;;;1.70;99.90;;;;;;5096381;28;20184;-47
2022/04/01 04:45:32;;;;;;;8.43;5.67;;;1.70;99.90;;;;;;5114509;28;20203;-46
2022/04/01 04:47:59;;;;;;;6.80;5.67;;;1.70;99.90;;;;;;5114515;28;20264;-48
2022/04/01 04:50:25;;;;;;;5.90;4.77;;;1.70;99.90;;;;;;5114450;28;20183;-46
2022/04/01 04:52:54;;;;;;;7.00;4.97;;;1.70;99.90;;;;;;5096353;28;20421;-48
2022/04/01 04:55:20;;;;;;;5.07;4.57;;;1.70;99.90;;;;;;5114345;28;20565;-47
2022/04/01 04:57:48;;;;;;;6.03;5.23;;;1.70;99.90;;;;;;5114713;28;20180;-40
2022/04/01 05:00:21;;;;;;;4.53;4.03;;;1.70;99.90;;;;;;5114645;28;20390;-43
2022/04/01 05:03:26;;;;;;;4.93;4.43;;;1.70;99.90;;;;;;5115435;28;20155;-45
2022/04/01 05:05:56;;;;;;;4.80;3.90;;;1.70;99.90;;;;;;5096045;28;20433;-41
2022/04/01 05:08:27;;;;;;;5.10;4.60;;;1.60;99.90;;;;;;5114044;28;20160;-43
2022/04/01 05:11:25;;;;;;;5.23;4.73;;;1.60;99.90;;;;;;5114264;28;20937;-42
2022/04/01 05:14:08;;;;;;;6.50;5.27;;;1.60;99.90;;;;;;5114800;28;20443;-42
2022/04/01 05:16:47;;;;;;;3.90;3.33;;;1.60;99.90;;;;;;5114422;28;20195;-42
2022/04/01 05:19:13;;;;;;;6.70;4.03;;;2.30;99.90;;;;;;5114892;28;20160;-40
2022/04/01 05:22:12;;;;;;;6.07;4.90;;;1.60;99.90;;;;;;5114735;28;20267;-44
2022/04/01 05:24:51;;;;;;;5.73;4.60;;;1.60;99.90;;;;;;5060060;28;20417;-41
2022/04/01 05:27:28;;;;;;;6.20;4.17;;;1.60;99.90;;;;;;5114646;28;20758;-41
2022/04/01 05:30:12;;;;;;;5.83;5.23;;;1.50;99.90;;;;;;5114798;28;20205;-42
2022/04/01 05:32:40;;;;;;;5.40;4.57;;;1.50;99.90;;;;;;5114676;28;20157;-42
2022/04/01 05:35:06;;;;;;;3.97;3.30;;;1.50;99.90;;;;;;5114452;28;20488;-42
2022/04/01 05:37:34;;;;;;;4.30;3.90;;;1.50;99.90;;;;;;5114518;28;20838;-41
2022/04/01 05:40:05;;;;;;;4.23;3.67;;;1.50;99.90;;;;;;5114959;28;20164;-41
2022/04/01 05:42:32;;;;;;;5.23;4.30;;;1.50;99.90;;;;;;5115408;28;20485;-42
2022/04/01 05:44:59;;;;;;;4.03;3.70;;;1.50;99.90;;;;;;5114596;28;20792;-41
2022/04/01 05:47:27;;;;;;;5.17;4.67;;;1.50;99.90;;;;;;5114301;28;20449;-42
2022/04/01 05:49:57;;;;;;;5.60;4.77;;;1.50;99.90;;;;;;5114545;28;20439;-42
2022/04/01 05:52:23;;;;;;;4.13;3.37;;;1.50;99.90;;;;;;5114268;28;20174;-40
2022/04/01 05:54:49;;;;;;;5.23;4.43;;;1.50;99.90;;;;;;5095833;28;20565;-40
2022/04/01 05:57:18;;;;;;;4.50;4.07;;;1.50;99.90;;;;;;5113949;28;20190;-41
2022/04/01 05:59:45;;;;;;;4.80;4.30;;;1.50;99.90;;;;;;5114141;28;20274;-40
2022/04/01 06:02:12;;;;;;;4.23;3.83;;;1.50;99.90;;;;;;5079518;28;20834;-41
2022/04/01 06:04:49;;;;;;;4.50;3.67;;;1.50;99.90;;;;;;5115293;28;20496;-42
2022/04/01 06:07:14;;;;;;;4.27;3.87;;;1.50;99.90;;;;;;5115058;28;20206;-41
2022/04/01 06:10:11;;;;;;;4.50;4.00;;;1.50;99.90;;;;;;5114325;28;20900;-41
2022/04/01 06:13:10;;;;;;;3.53;3.23;;;1.50;99.90;;;;;;5096031;28;20217;-42
2022/04/01 06:16:02;;;;;;;4.90;3.87;;;1.50;99.90;;;;;;5114822;28;20447;-41
2022/04/01 06:18:47;;;;;;;4.57;4.17;;;1.50;99.90;;;;;;5115501;28;20389;-41
2022/04/01 06:21:22;;;;;;;4.90;4.47;;;1.50;99.90;;;;;;5117642;28;20476;-42
2022/04/01 06:24:10;;;;;;;4.60;4.20;;;1.50;99.90;;;;;;5119369;28;20389;-42
2022/04/01 06:26:46;;;;;;;4.33;3.93;;;1.50;99.90;;;;;;5119487;28;20432;-41
2022/04/01 06:29:38;;;;;;;4.87;3.60;;;1.50;99.90;;;;;;5118679;28;20384;-42
2022/04/01 06:32:11;;;;;;;6.10;4.63;;;1.50;99.90;;;;;;5121291;28;20382;-42
2022/04/01 06:34:58;;;;;;;4.90;4.40;;;1.50;99.90;;;;;;5103029;28;20186;-42
2022/04/01 06:37:28;;;;;;;6.07;4.70;;;1.50;99.90;;;;;;5122453;28;20442;-42
2022/04/01 06:40:12;;;;;;;4.00;3.23;;;1.50;99.90;;;;;;5123167;28;20393;-41
2022/04/01 06:42:40;;;;;;;3.00;2.43;;;1.50;99.90;;;;;;5122632;28;20917;-42
2022/04/01 06:45:08;;;;;;;7.97;4.17;;;1.50;99.90;;;;;;5103420;28;20471;-41
2022/04/01 06:47:35;;;;;;;5.67;4.37;;;1.50;99.90;;;;;;5122795;28;20400;-41
2022/04/01 06:50:01;;;;;;;4.03;3.07;;;1.50;99.90;;;;;;5121160;28;20419;-41
2022/04/01 06:52:27;;;;;;;3.93;3.47;;;1.50;99.90;;;;;;5119139;28;20408;-41
2022/04/01 06:54:53;;;;;;;4.87;4.03;;;1.50;99.90;;;;;;5117609;28;20258;-42
2022/04/01 06:57:20;;;;;;;6.00;4.20;;;1.50;99.90;;;;;;5117549;28;20198;-48
2022/04/01 06:59:46;;;;;;;4.67;3.60;;;1.50;99.90;;;;;;5117409;28;20415;-48
2022/04/01 07:02:11;;;;;;;5.50;4.63;;;1.50;99.90;;;;;;5117869;28;20545;-48
2022/04/01 07:04:37;;;;;;;5.93;4.83;;;1.50;99.90;;;;;;5117712;28;20187;-47
2022/04/01 07:07:03;;;;;;;8.27;4.60;;;1.50;99.90;;;;;;5117084;28;20198;-48
2022/04/01 07:09:29;;;;;;;3.37;3.07;;;1.50;99.90;;;;;;5117431;28;20641;-48
2022/04/01 07:11:59;;;;;;;6.10;5.10;;;1.50;99.90;;;;;;5117212;28;20484;-47
2022/04/01 07:14:27;;;;;;;5.50;4.30;;;1.50;99.90;;;;;;5099123;28;20647;-48
2022/04/01 07:16:54;;;;;;;5.37;4.70;;;1.60;99.90;;;;;;5117286;28;20424;-47
2022/04/01 07:19:19;;;;;;;4.93;4.43;;;1.50;99.90;;;;;;5117526;28;20412;-48
2022/04/01 07:21:45;;;;;;;6.97;4.60;;;1.50;99.90;;;;;;5099302;28;20551;-47
2022/04/01 07:24:11;;;;;;;4.30;3.90;;;1.50;99.90;;;;;;5117733;28;20191;-48
2022/04/01 07:26:36;;;;;;;8.33;4.47;;;1.50;99.90;;;;;;5118843;28;20207;-47
2022/04/01 07:29:02;;;;;;;4.47;4.07;;;1.50;99.90;;;;;;5118151;28;20560;-48
2022/04/01 07:34:13;;;;;;;6.77;4.53;;;1.60;99.90;;;;;;5117216;28;20202;-48
2022/04/01 07:36:38;;;;;;;3.70;3.33;;;1.50;99.90;;;;;;5116131;28;20443;-49
2022/04/01 07:39:04;;;;;;;4.37;3.97;;;1.60;99.90;;;;;;5116540;28;20892;-48
2022/04/01 07:41:35;;;;;;;6.20;4.40;;;1.50;99.90;;;;;;5097975;28;20704;-49
2022/04/01 07:44:01;;;;;;;2.87;2.17;;;1.50;99.90;;;;;;5116025;28;20191;-49
2022/04/01 07:46:27;;;;;;;6.00;4.70;;;1.50;99.90;;;;;;5116265;28;20440;-48
2022/04/01 07:48:52;;;;;;;5.30;4.53;;;1.50;99.90;;;;;;5116440;28;20416;-49
2022/04/01 07:51:18;;;;;;;2.93;2.60;;;1.60;99.90;;;;;;5098411;28;20184;-47
2022/04/01 07:53:44;;;;;;;5.47;4.30;;;1.50;99.90;;;;;;5116091;28;20730;-48
2022/04/01 07:56:10;;;;;;;6.67;4.90;;;1.50;99.90;;;;;;5116210;28;20202;-48
2022/04/01 07:58:36;;;;;;;5.13;4.63;;;1.50;99.90;;;;;;5116137;28;20604;-49
2022/04/01 08:01:03;;;;;;;5.87;4.83;;;1.50;99.90;;;;;;5116187;28;20455;-50
2022/04/01 08:03:29;;;;;;;6.40;5.03;;;1.50;99.90;;;;;;5115864;28;20202;-48
2022/04/01 08:05:54;;;;;;;5.23;4.63;;;1.50;99.90;;;;;;5115912;28;20614;-49
2022/04/01 08:08:20;;;;;;;6.07;4.93;;;1.50;99.90;;;;;;5115643;28;20180;-48
2022/04/01 08:10:46;;;;;;;5.87;4.87;;;1.50;99.90;;;;;;5115570;28;20201;-47
2022/04/01 08:13:12;;;;;;;6.17;4.30;;;1.50;99.90;;;;;;5115317;28;20218;-49
2022/04/01 08:15:38;;;;;;;5.27;4.73;;;1.50;99.90;;;;;;5115511;28;20730;-48
2022/04/01 08:18:03;;;;;;;4.80;4.23;;;1.50;99.90;;;;;;5115881;28;20179;-47
2022/04/01 08:20:29;;;;;;;7.03;5.30;;;1.50;99.90;;;;;;5115807;28;20178;-47
2022/04/01 08:22:55;;;;;;;6.30;4.53;;;1.60;99.90;;;;;;5115714;28;20183;-46
2022/04/01 08:25:20;;;;;;;6.57;5.30;;;1.60;99.90;;;;;;5097056;28;20194;-47
2022/04/01 08:27:46;;;;;;;7.07;5.60;;;1.60;99.90;;;;;;5116042;28;20190;-45
2022/04/01 08:30:12;;;;;;;6.27;5.63;;;1.60;99.90;;;;;;5115918;28;20531;-47
2022/04/01 08:32:38;;;;;;;5.97;4.40;;;1.60;99.90;;;;;;5115528;28;20228;-46
2022/04/01 08:35:06;;;;;;;6.27;5.67;;;1.60;99.90;;;;;;5115113;28;20206;-46
2022/04/01 08:37:32;;;;;;;6.43;5.00;;;1.60;99.90;;;;;;5115291;28;20585;-49
2022/04/01 08:39:58;;;;;;;6.83;6.13;;;1.60;99.90;;;;;;5115187;28;20214;-49
2022/04/01 08:42:27;;;;;;;5.87;5.30;;;1.70;99.90;;;;;;5114845;28;20649;-48
2022/04/01 08:44:53;;;;;;;6.00;5.40;;;1.60;99.90;;;;;;5114932;28;20426;-48
2022/04/01 08:47:20;;;;;;;6.77;6.07;;;1.70;99.90;;;;;;5114823;28;20433;-47
2022/04/01 08:49:46;;;;;;;7.33;6.10;;;1.60;99.90;;;;;;5115211;28;20389;-47
2022/04/01 08:52:11;;;;;;;7.70;5.17;;;1.60;99.90;;;;;;5115108;28;20463;-49
2022/04/01 08:54:37;;;;;;;6.03;5.43;;;1.60;99.90;;;;;;5115280;28;20717;-48
2022/04/01 08:57:05;;;;;;;7.83;5.80;;;1.60;99.90;;;;;;5115245;28;20193;-47
2022/04/01 08:59:31;;;;;;;6.50;4.53;;;1.70;99.90;;;;;;5115517;28;20183;-47
2022/04/01 09:02:09;;;;;;;6.40;5.70;;;1.60;99.90;;;;;;5115220;28;20408;-49
2022/04/01 09:04:36;;;;;;;6.03;5.37;;;1.70;99.90;;;;;;5096934;28;20444;-47
2022/04/01 09:07:13;;;;;;;7.73;5.80;;;1.70;99.90;;;;;;5114955;28;20215;-47
2022/04/01 09:09:39;;;;;;;6.70;4.87;;;1.60;99.90;;;;;;5115379;28;20912;-48
2022/04/01 09:12:17;;;;;;;6.00;4.63;;;1.60;99.90;;;;;;5114997;28;20491;-48
2022/04/01 09:14:54;;;;;;;5.63;4.70;;;1.60;99.90;;;;;;5115454;28;20484;-47
2022/04/01 09:17:20;;;;;;;14.43;5.87;;;1.60;99.90;;;;;;5114967;28;20457;-47
2022/04/01 09:19:46;;;;;;;8.20;4.53;;;1.60;99.90;;;;;;5115005;28;20461;-48
2022/04/01 09:22:18;;;;;;;8.93;5.37;;;1.60;99.90;;;;;;5114476;28;20810;-48
2022/04/01 09:25:06;;;;;;;5.47;4.97;;;1.60;99.90;;;;;;5114343;28;20180;-48
2022/04/01 09:27:39;;;;;;;6.77;6.07;;;1.60;99.90;;;;;;5114308;28;20542;-49
2022/04/01 09:30:07;;;;;;;8.30;5.30;;;1.60;99.90;;;;;;5114488;28;20427;-48
2022/04/01 09:33:00;;;;;;;4.60;3.80;;;1.60;99.90;;;;;;5114222;28;20414;-48
2022/04/01 09:35:28;;;;;;;6.17;4.80;;;1.70;99.90;;;;;;5110387;28;20676;-47
2022/04/01 09:37:57;;;;;;;6.17;5.43;;;1.70;99.90;;;;;;5114261;28;20232;-48
2022/04/01 09:40:23;;;;;;;5.47;4.97;;;1.70;99.90;;;;;;5114744;28;20926;-48
2022/04/01 09:42:54;;;;;;;5.07;4.33;;;1.70;99.90;;;;;;5113905;28;20417;-48
2022/04/01 09:45:26;;;;;;;4.97;4.17;;;1.70;99.90;;;;;;5114168;28;20203;-48
2022/04/01 09:48:15;;;;;;;3.93;3.57;;;1.70;99.90;;;;;;5114284;28;20769;-49
2022/04/01 09:50:43;;;;;;;5.73;4.70;;;1.70;99.90;;;;;;5114405;28;20925;-48
2022/04/01 09:53:21;;;;;;;5.43;4.60;;;1.70;99.90;;;;;;5113979;28;20409;-48
2022/04/01 09:55:49;;;;;;;5.93;4.20;;;1.80;99.90;;;;;;5116479;28;20482;-49
2022/04/01 09:58:16;;;;;;;5.87;4.77;;;1.80;99.90;;;;;;5118421;28;20410;-49
2022/04/01 10:00:43;;;;;;;10.50;4.50;;;1.80;99.90;;;;;;5118430;28;20497;-49
2022/04/01 10:03:11;;;;;;;6.03;4.50;;;1.80;99.90;;;;;;5119174;28;20865;-48
2022/04/01 10:05:38;;;;;;;3.93;3.53;;;1.80;99.90;;;;;;5118023;28;20938;-48
2022/04/01 10:08:08;;;;;;;5.57;4.37;;;1.80;99.90;;;;;;5118375;28;20419;-49
2022/04/01 10:10:36;;;;;;;5.13;4.37;;;1.80;99.90;;;;;;5118747;28;20401;-48
2022/04/01 10:13:04;;;;;;;4.90;2.90;;;1.80;99.90;;;;;;5117677;28;20203;-49
2022/04/01 10:15:31;;;;;;;6.33;3.53;;;1.80;99.90;;;;;;5118226;28;20933;-49
2022/04/01 10:17:59;;;;;;;5.80;4.67;;;1.80;99.90;;;;;;5118163;28;20817;-47
2022/04/01 10:20:36;;;;;;;7.27;5.83;;;1.80;99.90;;;;;;5117923;28;20755;-49
2022/04/01 10:23:06;;;;;;;6.77;5.13;;;1.80;99.90;;;;;;5117732;28;20418;-48
2022/04/01 10:25:44;;;;;;;7.87;5.37;;;1.80;99.90;;;;;;5117962;28;20427;-49
2022/04/01 10:28:09;;;;;;;6.17;4.83;;;1.80;99.90;;;;;;5117911;28;20208;-49
2022/04/01 10:30:35;;;;;;;4.67;3.93;;;1.80;99.90;;;;;;5117998;28;20501;-48
2022/04/01 10:33:09;;;;;;;7.17;5.20;;;1.80;99.90;;;;;;5117911;28;20196;-47
2022/04/01 10:35:38;;;;;;;8.40;5.43;;;1.90;99.90;;;;;;5099424;28;20193;-48
2022/04/01 10:38:06;;;;;;;10.83;5.53;;;1.90;99.90;;;;;;5118134;28;20863;-48
2022/04/01 10:40:35;;;;;;;8.53;5.53;;;1.90;99.90;;;;;;5117664;28;20169;-48
2022/04/01 10:43:13;;;;;;;7.90;5.70;;;2.00;99.90;;;;;;5117332;28;20413;-49
2022/04/01 10:45:40;;;;;;;7.10;6.03;;;2.00;99.90;;;;;;5117395;28;20187;-47
2022/04/01 10:53:59;;;;;;;6.00;3.70;;;1.90;99.90;;;;;;5117599;28;20194;-48
2022/04/01 10:56:30;;;;;;;6.23;4.13;;;1.90;99.90;;;;;;5117436;28;20197;-42
2022/04/01 10:59:18;;;;;;;5.83;4.70;;;1.90;99.90;;;;;;5117437;28;20162;-42
2022/04/01 11:01:52;;;;;;;5.50;4.60;;;2.00;99.90;;;;;;5117353;28;20403;-41
2022/04/01 11:04:18;;;;;;;7.47;5.77;;;2.00;99.90;;;;;;5116986;28;20178;-41
2022/04/01 11:06:49;;;;;;;6.27;3.93;;;2.00;99.90;;;;;;5116534;28;20196;-43
2022/04/01 11:09:35;;;;;;;8.00;5.17;;;2.00;99.90;;;;;;5116990;28;20184;-42
2022/04/01 11:12:31;;;;;;;8.10;5.03;;;2.00;99.90;;;;;;5116758;28;20188;-41
2022/04/01 11:15:02;;;;;;;6.00;4.77;;;2.10;99.90;;;;;;5081297;28;20480;-43
2022/04/01 11:17:51;;;;;;;7.60;4.07;;;2.00;99.90;;;;;;5116806;28;20187;-42
2022/04/01 11:20:19;;;;;;;6.70;4.63;;;2.00;99.90;;;;;;5116796;28;20420;-41
2022/04/01 11:23:00;;;;;;;7.00;4.10;;;2.00;99.90;;;;;;5098253;28;20184;-42
2022/04/01 11:25:27;;;;;;;5.20;3.83;;;2.00;99.90;;;;;;5116760;28;20206;-41
2022/04/01 11:28:14;;;;;;;8.17;4.20;;;2.00;99.90;;;;;;5116897;28;20498;-42
2022/04/01 11:30:40;;;;;;;3.50;3.07;;;2.00;99.90;;;;;;5117020;28;20170;-44
2022/04/01 11:33:12;;;;;;;6.67;4.13;;;2.00;99.90;;;;;;5116662;28;20439;-42
2022/04/01 11:35:41;;;;;;;5.83;4.63;;;2.10;99.90;;;;;;5116333;28;20196;-42
2022/04/01 11:38:09;;;;;;;12.07;7.20;;;2.10;99.90;;;;;;5116012;28;20179;-41
2022/04/01 11:40:37;;;;;;;16.63;10.70;;;2.10;99.90;;;;;;5116331;28;20157;-41
2022/04/01 11:43:15;;;;;;;7.70;6.07;;;2.10;99.90;;;;;;5115951;28;20184;-43
2022/04/01 11:45:54;;;;;;;6.50;4.93;;;2.10;99.90;;;;;;5116108;28;20193;-42
2022/04/01 11:48:38;;;;;;;7.37;6.43;;;2.10;99.90;;;;;;5097801;28;20165;-41
2022/04/01 11:51:13;;;;;;;7.73;6.40;;;2.00;99.90;;;;;;5116210;28;20393;-42
2022/04/01 11:53:47;;;;;;;5.67;4.37;;;1.90;99.90;;;;;;5115724;28;20182;-42
2022/04/01 11:56:14;;;;;;;6.40;4.13;;;2.00;99.90;;;;;;5097475;28;20288;-41
2022/04/01 11:58:59;;;;;;;5.87;4.40;;;2.00;99.90;;;;;;5115963;28;20172;-43
2022/04/01 12:01:30;;;;;;;6.83;4.23;;;2.00;99.90;;;;;;5115820;28;20193;-42
2022/04/01 12:04:08;;;;;;;4.80;4.30;;;2.00;99.90;;;;;;5115699;28;20174;-43
2022/04/01 12:09:19;;;;;;;9.03;4.37;;;2.00;99.90;;;;;;5117057;28;20163;-44
2022/04/01 12:11:46;;;;;;;5.43;3.07;;;2.10;99.90;;;;;;5115528;28;20194;-41
2022/04/01 12:14:12;;;;;;;4.60;3.87;;;2.10;99.90;;;;;;5115589;28;20201;-42
2022/04/01 12:16:43;;;;;;;5.63;4.23;;;2.00;99.90;;;;;;5115725;28;20204;-42
2022/04/01 12:19:21;;;;;;;4.87;4.00;;;2.10;99.90;;;;;;5115021;28;20172;-42
2022/04/01 12:21:58;;;;;;;6.23;4.30;;;2.10;99.90;;;;;;5115766;28;20164;-42
2022/04/01 12:24:29;;;;;;;3.13;2.83;;;2.10;99.90;;;;;;5097358;28;20228;-41
2022/04/01 12:26:55;;;;;;;5.07;3.97;;;2.10;99.90;;;;;;5115181;28;20744;-43
2022/04/01 12:29:26;;;;;;;5.67;4.00;;;2.10;99.90;;;;;;5115710;28;20182;-43
2022/04/01 12:32:00;;;;;;;7.63;4.13;;;2.10;99.90;;;;;;5115081;28;20253;-44
2022/04/01 12:34:26;;;;;;;4.03;3.20;;;2.10;99.90;;;;;;5114837;28;20194;-43
2022/04/01 12:37:14;;;;;;;5.60;4.40;;;2.00;99.90;;;;;;5096802;28;20193;-43
2022/04/01 12:39:44;;;;;;;4.83;4.10;;;2.00;99.90;;;;;;5114135;28;20192;-41
2022/04/01 12:42:11;;;;;;;8.50;5.13;;;2.10;99.90;;;;;;5115360;28;20153;-40
2022/04/01 12:44:40;;;;;;;4.70;4.20;;;2.00;99.90;;;;;;5115008;28;20202;-43
2022/04/01 12:47:06;;;;;;;5.50;4.30;;;2.00;99.90;;;;;;5114831;28;20603;-41
2022/04/01 12:49:34;;;;;;;6.60;4.40;;;2.00;99.90;;;;;;5114612;28;20523;-48
2022/04/01 12:52:07;;;;;;;5.33;4.37;;;2.00;99.90;;;;;;5114980;28;20265;-49
2022/04/01 12:54:37;;;;;;;8.93;4.20;;;2.00;99.90;;;;;;5114818;28;20184;-47
2022/04/01 12:57:08;;;;;;;6.40;4.30;;;2.00;99.90;;;;;;5114740;28;20282;-49
2022/04/01 12:59:39;;;;;;;5.63;4.13;;;2.00;99.90;;;;;;5114473;28;20193;-48
2022/04/01 13:02:24;;;;;;;4.33;3.53;;;2.00;99.90;;;;;;5114676;28;20172;-47
2022/04/01 13:04:52;;;;;;;6.00;4.23;;;2.00;99.90;;;;;;5114341;28;20169;-47
2022/04/01 13:07:19;;;;;;;5.10;4.10;;;2.10;99.90;;;;;;5114153;28;20197;-48
2022/04/01 13:09:56;;;;;;;5.47;3.60;;;2.10;99.90;;;;;;5114521;28;20188;-49
2022/04/01 13:12:28;;;;;;;6.60;4.87;;;2.10;99.90;;;;;;5114281;28;20538;-48
2022/04/01 13:15:01;;;;;;;5.80;4.57;;;2.10;99.90;;;;;;5114940;28;20200;-48
2022/04/01 13:17:28;;;;;;;6.03;4.00;;;2.10;99.90;;;;;;5114125;28;20203;-49
2022/04/01 13:19:53;;;;;;;3.80;3.17;;;2.10;99.90;;;;;;5114325;28;20175;-47
2022/04/01 13:22:20;;;;;;;4.90;4.33;;;2.10;99.90;;;;;;5114571;28;20203;-48
2022/04/01 13:24:47;;;;;;;5.63;4.10;;;2.10;99.90;;;;;;5114158;28;20176;-47